createdAt,value
2023-03-18T00:12:10.697Z,100901.47
2023-03-18T00:15:02.180Z,100906.13
2023-03-18T00:17:37.788Z,100918.16
2023-03-18T00:20:14.822Z,100915.81
2023-03-18T00:22:50.178Z,100914.25
2023-03-18T00:31:44.154Z,100920.38
2023-03-18T00:34:46.169Z,100914.91
2023-03-18T00:37:43.298Z,100908.66
2023-03-18T00:40:51.385Z,100915.25
2023-03-18T00:46:39.037Z,100929.22
2023-03-18T00:49:16.444Z,100926.81
2023-03-18T01:03:16.221Z,100910.06
2023-03-18T01:11:44.792Z,100914.28
2023-03-18T01:14:40.776Z,100915.06
2023-03-18T01:17:37.632Z,100910.38
2023-03-18T01:20:18.990Z,100907.25
2023-03-18T01:23:11.766Z,100911.53
2023-03-18T01:26:27.181Z,100914.66
2023-03-18T01:28:59.509Z,100920.44
2023-03-18T01:35:06.994Z,100917.31
2023-03-18T01:49:44.868Z,100917.66
2023-03-18T01:52:42.463Z,100920.00
2023-03-18T01:58:27.761Z,100924.25
2023-03-18T02:01:03.590Z,100920.34
2023-03-18T02:03:37.342Z,100923.44
2023-03-18T02:12:20.062Z,100918.38
2023-03-18T02:27:27.210Z,100933.84
2023-03-18T02:30:32.975Z,100932.69
2023-03-18T02:36:08.560Z,100926.84
2023-03-18T02:44:24.876Z,100927.63
2023-03-18T02:52:44.290Z,100936.13
2023-03-18T02:55:16.005Z,100940.00
2023-03-18T02:57:59.643Z,100940.00
2023-03-18T03:00:30.140Z,100934.56
2023-03-18T03:02:58.480Z,100940.78
2023-03-18T03:05:50.186Z,100937.69
2023-03-18T03:08:38.741Z,100934.97
2023-03-18T03:11:40.731Z,100934.19
2023-03-18T03:19:40.815Z,100938.44
2023-03-18T03:24:56.908Z,100948.53
2023-03-18T03:27:42.035Z,100952.03
2023-03-18T03:30:32.804Z,100957.03
2023-03-18T03:35:47.828Z,100962.13
2023-03-18T03:38:24.652Z,100958.63
2023-03-18T03:41:11.455Z,100962.47
2023-03-18T03:46:27.995Z,100965.56
2023-03-18T03:54:28.708Z,100972.22
2023-03-18T03:56:57.032Z,100962.47
2023-03-18T03:59:24.370Z,100970.63
2023-03-18T04:02:11.020Z,100970.28
2023-03-18T04:05:04.265Z,100973.75
2023-03-18T04:07:32.449Z,100978.78
2023-03-18T04:13:04.090Z,100975.72
2023-03-18T04:24:28.405Z,100979.19
2023-03-18T04:38:29.663Z,100978.06
2023-03-18T04:40:57.798Z,100985.09
2023-03-18T04:46:13.271Z,100974.28
2023-03-18T04:49:00.434Z,100978.94
2023-03-18T04:51:27.682Z,100981.25
2023-03-18T05:02:04.569Z,100978.53
2023-03-18T05:05:05.329Z,100986.69
2023-03-18T05:08:07.337Z,100992.13
2023-03-18T05:11:01.528Z,100992.13
2023-03-18T05:13:30.912Z,101000.28
2023-03-18T05:18:48.928Z,101007.59
2023-03-18T05:26:55.850Z,101020.44
2023-03-18T05:29:38.653Z,101015.34
2023-03-18T05:34:54.159Z,101025.81
2023-03-18T05:37:40.403Z,101020.75
2023-03-18T05:43:14.471Z,101023.88
2023-03-18T05:45:44.145Z,101023.09
2023-03-18T05:51:04.383Z,101033.19
2023-03-18T05:53:54.123Z,101033.59
2023-03-18T05:56:38.380Z,101036.31
2023-03-18T05:59:11.388Z,101037.47
2023-03-18T06:01:42.358Z,101035.91
2023-03-18T06:04:13.247Z,101035.13
2023-03-18T06:06:44.945Z,101039.41
2023-03-18T06:09:17.577Z,101039.41
2023-03-18T06:11:49.272Z,101049.50
2023-03-18T06:14:41.379Z,101051.84
2023-03-18T06:17:09.697Z,101049.91
2023-03-18T06:19:44.970Z,101052.63
2023-03-18T06:22:26.004Z,101047.59
2023-03-18T06:24:56.961Z,101049.91
2023-03-18T06:30:26.500Z,101067.00
2023-03-18T06:33:14.797Z,101072.44
2023-03-18T06:38:54.342Z,101082.16
2023-03-18T06:41:33.751Z,101093.81
2023-03-18T06:52:09.029Z,101084.19
2023-03-18T06:54:38.114Z,101088.84
2023-03-18T06:57:14.964Z,101088.91
2023-03-18T06:59:43.167Z,101091.66
2023-03-18T07:05:27.922Z,101095.97
2023-03-18T07:07:55.741Z,101107.31
2023-03-18T07:16:24.993Z,101099.63
2023-03-18T07:36:00.353Z,101131.38
2023-03-18T07:38:27.131Z,101133.03
2023-03-18T07:40:53.705Z,101137.00
2023-03-18T07:43:20.308Z,101134.34
2023-03-18T07:45:46.851Z,101133.16
2023-03-18T07:48:14.276Z,101141.34
2023-03-18T07:50:41.332Z,101144.06
2023-03-18T07:53:07.813Z,101148.00
2023-03-18T07:55:35.464Z,101150.31
2023-03-18T07:58:02.232Z,101148.03
2023-03-18T08:00:29.550Z,101144.19
2023-03-18T08:02:56.011Z,101145.75
2023-03-18T08:05:22.649Z,101146.53
2023-03-18T08:07:49.424Z,101143.44
2023-03-18T08:10:16.164Z,101145.81
2023-03-18T08:12:52.557Z,101146.22
2023-03-18T08:15:31.879Z,101138.84
2023-03-18T08:20:57.655Z,101150.25
2023-03-18T08:43:07.815Z,101144.59
2023-03-18T09:12:21.651Z,101150.19
2023-03-18T09:37:38.710Z,101186.41
2023-03-18T09:40:07.438Z,101184.50
2023-03-18T09:42:45.912Z,101185.28
2023-03-18T09:45:23.938Z,101181.00
2023-03-18T09:48:27.633Z,101180.66
2023-03-18T13:39:08.458Z,101190.47
2023-03-18T13:41:50.136Z,101187.34
2023-03-18T13:44:54.887Z,101189.25
2023-03-18T13:47:19.625Z,101188.38
2023-03-18T13:49:50.166Z,101192.28
2023-03-18T13:56:02.321Z,101186.00
2023-03-18T13:59:09.190Z,101189.13
2023-03-18T14:34:58.112Z,101164.09
2023-03-18T15:03:08.405Z,101119.25
2023-03-18T15:05:38.918Z,101119.19
2023-03-18T15:08:17.888Z,101119.56
2023-03-18T15:10:49.689Z,101120.34
2023-03-18T15:21:42.642Z,101109.09
2023-03-18T15:24:11.218Z,101112.28
2023-03-18T15:29:33.197Z,101105.25
2023-03-18T15:36:20.460Z,101108.47
2023-03-18T16:05:54.055Z,101097.84
2023-03-18T16:10:41.742Z,101099.84
2023-03-18T16:12:08.306Z,101101.03
2023-03-18T16:15:32.814Z,101106.94
2023-03-18T16:18:10.506Z,101104.66
2023-03-18T16:20:51.762Z,101107.41
2023-03-18T16:23:24.736Z,101105.09
2023-03-18T16:26:10.420Z,101116.44
2023-03-18T16:28:44.248Z,101107.47
2023-03-18T16:31:12.660Z,101108.25
2023-03-18T16:33:39.510Z,101111.03
2023-03-18T16:36:10.148Z,101110.25
2023-03-18T16:38:36.847Z,101115.72
2023-03-18T16:41:03.595Z,101115.75
2023-03-18T16:43:32.185Z,101112.25
2023-03-18T16:46:01.479Z,101113.47
2023-03-18T16:48:28.200Z,101108.38
2023-03-18T16:50:56.900Z,101104.88
2023-03-18T16:53:27.259Z,101106.84
2023-03-18T16:55:57.670Z,101097.91
2023-03-18T16:58:31.388Z,101111.97
2023-03-18T17:00:58.209Z,101106.13
2023-03-18T17:03:24.896Z,101108.50
2023-03-18T17:05:52.964Z,101111.63
2023-03-18T17:08:21.577Z,101115.16
2023-03-18T17:10:51.502Z,101108.13
2023-03-18T17:13:23.124Z,101110.91
2023-03-18T17:15:51.255Z,101112.06
2023-03-18T17:18:21.265Z,101115.19
2023-03-18T17:20:49.053Z,101121.47
2023-03-18T17:23:17.754Z,101110.13
2023-03-18T17:25:57.358Z,101096.50
2023-03-18T17:28:32.395Z,101109.00
2023-03-18T17:30:59.986Z,101100.44
2023-03-18T17:33:31.100Z,101101.59
2023-03-18T17:36:00.616Z,101102.41
2023-03-18T17:38:28.734Z,101105.91
2023-03-18T17:40:55.567Z,101103.16
2023-03-18T17:43:33.296Z,101105.47
2023-03-18T17:46:01.641Z,101096.09
2023-03-18T17:48:30.340Z,101097.28
2023-03-18T17:51:00.481Z,101095.72
2023-03-18T17:53:32.007Z,101102.34
2023-03-18T17:55:59.284Z,101103.50
2023-03-18T17:58:28.796Z,101106.63
2023-03-18T18:01:02.622Z,101107.00
2023-03-18T18:03:31.847Z,101107.75
2023-03-18T18:06:00.384Z,101113.97
2023-03-18T18:08:29.749Z,101118.63
2023-03-18T18:11:18.796Z,101113.53
2023-03-18T18:13:47.601Z,101115.09
2023-03-18T18:16:14.872Z,101131.03
2023-03-18T18:18:41.691Z,101126.72
2023-03-18T18:21:15.596Z,101123.19
2023-03-18T18:23:44.969Z,101135.25
2023-03-18T18:26:16.501Z,101120.81
2023-03-18T18:28:48.388Z,101131.31
2023-03-18T18:31:20.143Z,101135.19
2023-03-18T18:33:50.220Z,101136.75
2023-03-18T18:36:18.159Z,101130.50
2023-03-18T18:38:45.305Z,101132.44
2023-03-18T18:41:11.894Z,101121.84
2023-03-18T18:43:39.862Z,101133.91
2023-03-18T18:46:12.889Z,101133.53
2023-03-18T18:48:39.629Z,101130.78
2023-03-18T18:51:06.739Z,101133.09
2023-03-18T18:53:36.594Z,101136.22
2023-03-18T18:56:14.272Z,101136.97
2023-03-18T18:58:43.182Z,101138.16
2023-03-18T19:01:13.921Z,101137.38
2023-03-18T19:03:41.671Z,101130.00
2023-03-18T19:06:30.344Z,101130.75
2023-03-18T19:08:59.622Z,101133.09
2023-03-18T19:11:27.920Z,101137.38
2023-03-18T19:13:55.431Z,101128.44
2023-03-18T19:16:31.990Z,101129.22
2023-03-18T19:18:59.851Z,101130.00
2023-03-18T19:21:29.969Z,101130.00
2023-03-18T19:23:58.357Z,101130.75
2023-03-18T19:26:25.108Z,101133.47
2023-03-18T19:29:01.575Z,101135.06
2023-03-18T19:31:30.848Z,101130.38
2023-03-18T19:33:59.560Z,101135.47
2023-03-18T19:36:30.520Z,101129.63
2023-03-18T19:38:59.504Z,101137.00
2023-03-18T19:41:29.654Z,101127.69
2023-03-18T19:44:13.826Z,101134.28
2023-03-18T19:46:43.497Z,101142.84
2023-03-18T19:52:17.060Z,101163.13
2023-03-18T19:54:44.212Z,101170.09
2023-03-18T19:57:20.250Z,101181.38
2023-03-18T19:59:48.620Z,101183.81
2023-03-18T20:02:26.326Z,101177.22
2023-03-18T20:04:55.843Z,101174.56
2023-03-18T20:07:25.149Z,101184.69
2023-03-18T20:09:53.397Z,101181.97
2023-03-18T20:12:25.679Z,101192.09
2023-03-18T20:14:52.900Z,101200.66
2023-03-18T20:17:23.499Z,101204.16
2023-03-18T20:19:51.416Z,101208.47
2023-03-18T20:22:24.889Z,101219.34
2023-03-18T20:24:52.110Z,101215.44
2023-03-18T20:27:18.706Z,101205.28
2023-03-18T20:29:46.923Z,101220.03
2023-03-18T20:32:13.880Z,101206.41
2023-03-18T20:34:41.630Z,101214.13
2023-03-18T20:37:21.639Z,101208.66
2023-03-18T20:39:49.755Z,101205.16
2023-03-18T20:42:22.465Z,101198.50
2023-03-18T20:44:48.971Z,101192.25
2023-03-18T20:47:15.572Z,101198.47
2023-03-18T20:49:45.663Z,101195.72
2023-03-18T20:52:26.305Z,101190.25
2023-03-18T20:54:53.214Z,101195.28
2023-03-18T20:57:19.983Z,101186.69
2023-03-18T20:59:47.040Z,101199.13
2023-03-18T21:02:29.839Z,101189.75
2023-03-18T21:04:58.151Z,101198.69
2023-03-18T21:07:25.601Z,101197.47
2023-03-18T21:09:52.597Z,101200.19
2023-03-18T21:12:20.733Z,101209.06
2023-03-18T21:14:48.475Z,101202.84
2023-03-18T21:17:21.962Z,101197.00
2023-03-18T21:19:49.783Z,101197.75
2023-03-18T21:22:21.656Z,101198.53
2023-03-18T21:24:49.273Z,101195.06
2023-03-18T21:27:20.235Z,101203.22
2023-03-18T21:29:49.273Z,101193.88
2023-03-18T21:32:32.727Z,101199.31
2023-03-18T21:35:00.004Z,101194.69
2023-03-18T21:37:27.450Z,101192.72
2023-03-18T21:39:54.348Z,101188.44
2023-03-18T21:42:37.042Z,101191.94
2023-03-18T21:45:38.776Z,101188.84
2023-03-18T21:51:07.617Z,101186.53
2023-03-18T21:53:46.255Z,101190.41
2023-03-18T21:56:34.427Z,101189.25
2023-03-18T22:02:25.202Z,101186.50
2023-03-18T22:05:07.140Z,101182.22
2023-03-18T22:16:22.920Z,101181.38
2023-03-18T22:19:12.267Z,101180.97
2023-03-18T22:21:56.743Z,101178.66
2023-03-18T22:36:09.541Z,101167.38
2023-03-18T22:41:33.561Z,101157.66
2023-03-18T22:44:12.135Z,101160.00
2023-03-18T22:46:42.096Z,101167.00
2023-03-18T22:49:16.281Z,101163.50
2023-03-18T22:57:21.490Z,101159.25
2023-03-18T22:59:53.350Z,101163.56
2023-03-18T23:02:30.211Z,101178.72
2023-03-18T23:19:34.468Z,101175.22
2023-03-18T23:24:53.360Z,101177.94
2023-03-18T23:38:53.836Z,101170.50
2023-03-18T23:41:21.720Z,101174.41
2023-03-18T23:43:53.660Z,101179.13
2023-03-18T23:46:52.952Z,101177.56
2023-03-18T23:52:30.648Z,101182.25
2023-03-18T23:57:47.982Z,101181.38
